createdAt,value
2023-03-18T00:01:04.099Z,4.93
2023-03-18T00:03:32.628Z,8.90
2023-03-18T00:06:05.408Z,7.68
2023-03-18T00:08:33.875Z,7.45
2023-03-18T00:11:05.503Z,8.57
2023-03-18T00:13:34.613Z,7.45
2023-03-18T00:16:03.097Z,9.10
2023-03-18T00:18:31.536Z,7.68
2023-03-18T00:21:00.897Z,7.32
2023-03-18T00:23:29.239Z,6.25
2023-03-18T00:25:59.903Z,7.57
2023-03-18T00:28:31.324Z,8.43
2023-03-18T00:31:04.367Z,5.93
2023-03-18T00:33:32.284Z,4.20
2023-03-18T00:36:00.182Z,5.38
2023-03-18T00:38:29.570Z,7.53
2023-03-18T00:41:04.527Z,10.00
2023-03-18T00:43:33.809Z,5.28
2023-03-18T00:46:03.725Z,5.17
2023-03-18T00:48:31.517Z,7.27
2023-03-18T00:50:59.318Z,6.95
2023-03-18T00:53:27.081Z,9.60
2023-03-18T00:55:55.360Z,7.95
2023-03-18T00:58:23.153Z,6.13
2023-03-18T01:00:52.682Z,6.17
2023-03-18T01:03:20.458Z,6.18
2023-03-18T01:05:48.217Z,6.10
2023-03-18T01:08:15.930Z,8.47
2023-03-18T01:10:43.828Z,6.63
2023-03-18T01:13:11.694Z,10.85
2023-03-18T01:15:39.480Z,7.53
2023-03-18T01:18:08.712Z,7.70
2023-03-18T01:20:37.964Z,9.85
2023-03-18T01:23:08.895Z,5.93
2023-03-18T01:25:37.410Z,8.93
2023-03-18T01:28:06.296Z,7.97
2023-03-18T01:30:35.522Z,8.10
2023-03-18T01:33:07.148Z,7.27
2023-03-18T01:35:37.589Z,6.23
2023-03-18T01:38:06.515Z,6.27
2023-03-18T01:40:39.924Z,5.75
2023-03-18T01:43:16.062Z,8.73
2023-03-18T01:45:48.717Z,6.60
2023-03-18T01:48:17.795Z,7.97
2023-03-18T01:50:53.101Z,8.83
2023-03-18T01:53:22.331Z,7.38
2023-03-18T01:55:52.164Z,8.30
2023-03-18T01:58:24.581Z,7.57
2023-03-18T02:00:58.882Z,6.30
2023-03-18T02:03:28.762Z,10.20
2023-03-18T02:05:58.072Z,6.60
2023-03-18T02:08:25.896Z,7.17
2023-03-18T02:10:54.315Z,6.80
2023-03-18T02:13:22.054Z,8.03
2023-03-18T02:16:08.849Z,6.35
2023-03-18T02:18:42.203Z,8.60
2023-03-18T02:21:23.262Z,6.32
2023-03-18T02:24:01.280Z,6.90
2023-03-18T02:26:34.976Z,5.37
2023-03-18T02:29:08.960Z,7.95
2023-03-18T02:31:47.852Z,5.70
2023-03-18T02:34:17.265Z,5.40
2023-03-18T02:36:45.858Z,6.30
2023-03-18T02:39:15.332Z,6.75
2023-03-18T02:41:44.800Z,6.22
2023-03-18T02:44:14.201Z,5.35
2023-03-18T02:47:05.217Z,6.40
2023-03-18T02:49:33.595Z,8.52
2023-03-18T02:52:01.980Z,8.20
2023-03-18T02:54:31.846Z,7.95
2023-03-18T02:57:00.387Z,8.52
2023-03-18T02:59:29.686Z,7.83
2023-03-18T03:01:58.817Z,8.10
2023-03-18T03:04:27.239Z,9.55
2023-03-18T03:06:56.657Z,13.23
2023-03-18T03:09:36.543Z,8.70
2023-03-18T03:12:05.684Z,9.57
2023-03-18T03:14:36.859Z,7.97
2023-03-18T03:17:05.256Z,11.15
2023-03-18T03:19:33.205Z,7.50
2023-03-18T03:22:01.454Z,8.45
2023-03-18T03:24:30.375Z,6.17
2023-03-18T03:26:58.150Z,8.48
2023-03-18T03:29:26.001Z,7.38
2023-03-18T03:31:55.637Z,7.05
2023-03-18T03:34:23.688Z,6.17
2023-03-18T03:36:51.455Z,7.35
2023-03-18T03:39:19.191Z,9.13
2023-03-18T03:41:46.940Z,10.10
2023-03-18T03:44:17.312Z,10.53
2023-03-18T03:46:49.664Z,10.87
2023-03-18T03:49:19.022Z,9.73
2023-03-18T03:51:46.847Z,12.13
2023-03-18T03:54:15.289Z,10.37
2023-03-18T03:56:43.290Z,11.00
2023-03-18T03:59:11.482Z,8.87
2023-03-18T04:02:08.869Z,12.10
2023-03-18T04:04:38.753Z,11.43
2023-03-18T04:07:07.684Z,8.53
2023-03-18T04:09:36.196Z,10.07
2023-03-18T04:12:05.583Z,14.03
2023-03-18T04:14:33.982Z,9.80
2023-03-18T04:17:01.820Z,13.77
2023-03-18T04:19:30.443Z,12.23
2023-03-18T04:21:59.496Z,13.90
2023-03-18T04:24:27.321Z,13.50
2023-03-18T04:26:55.098Z,13.17
2023-03-18T04:29:23.689Z,12.27
2023-03-18T04:31:51.653Z,10.80
2023-03-18T04:34:20.530Z,10.82
2023-03-18T04:36:48.403Z,13.03
2023-03-18T04:39:17.741Z,9.77
2023-03-18T04:41:46.426Z,9.33
2023-03-18T04:44:15.614Z,9.87
2023-03-18T04:46:49.033Z,11.10
2023-03-18T04:49:17.201Z,8.53
2023-03-18T04:51:45.571Z,10.35
2023-03-18T04:54:24.075Z,8.27
2023-03-18T04:56:55.017Z,8.53
2023-03-18T04:59:23.825Z,9.60
2023-03-18T05:01:53.533Z,7.97
2023-03-18T05:04:22.095Z,8.50
2023-03-18T05:06:53.285Z,10.47
2023-03-18T05:09:28.593Z,7.40
2023-03-18T05:11:56.852Z,7.33
2023-03-18T05:14:33.110Z,7.97
2023-03-18T05:17:02.271Z,8.97
2023-03-18T05:19:31.510Z,7.40
2023-03-18T05:22:17.761Z,6.30
2023-03-18T05:24:49.651Z,8.03
2023-03-18T05:27:20.127Z,9.77
2023-03-18T05:29:57.042Z,7.07
2023-03-18T05:32:32.699Z,8.33
2023-03-18T05:35:05.564Z,7.83
2023-03-18T05:37:38.662Z,7.77
2023-03-18T05:40:11.981Z,7.23
2023-03-18T05:42:55.448Z,7.67
2023-03-18T05:45:30.517Z,7.80
2023-03-18T05:47:58.984Z,9.10
2023-03-18T05:50:31.788Z,8.15
2023-03-18T05:53:01.813Z,8.30
2023-03-18T05:55:36.338Z,6.77
2023-03-18T05:58:06.019Z,6.83
2023-03-18T06:00:37.528Z,6.00
2023-03-18T06:03:05.863Z,6.73
2023-03-18T06:05:36.252Z,8.40
2023-03-18T06:08:04.367Z,8.37
2023-03-18T06:10:35.411Z,8.47
2023-03-18T06:13:03.188Z,12.10
2023-03-18T06:15:32.238Z,12.93
2023-03-18T06:18:00.925Z,10.57
2023-03-18T06:20:29.547Z,12.20
2023-03-18T06:22:58.625Z,8.87
2023-03-18T06:25:27.865Z,10.53
2023-03-18T06:28:00.023Z,9.43
2023-03-18T06:30:30.303Z,10.65
2023-03-18T06:32:58.586Z,12.60
2023-03-18T06:35:28.138Z,10.73
2023-03-18T06:37:56.070Z,10.57
2023-03-18T06:40:25.633Z,13.40
2023-03-18T06:42:55.035Z,10.18
2023-03-18T06:45:32.793Z,9.75
2023-03-18T06:48:06.213Z,9.55
2023-03-18T06:50:39.747Z,10.07
2023-03-18T06:53:14.281Z,10.97
2023-03-18T06:55:43.782Z,10.67
2023-03-18T06:58:12.121Z,9.93
2023-03-18T07:00:57.236Z,8.30
2023-03-18T07:03:28.594Z,7.67
2023-03-18T07:05:57.258Z,8.67
2023-03-18T07:08:26.227Z,8.33
2023-03-18T07:10:57.364Z,7.82
2023-03-18T07:13:26.301Z,8.57
2023-03-18T07:15:56.558Z,11.23
2023-03-18T07:18:26.969Z,10.87
2023-03-18T07:20:55.033Z,13.37
2023-03-18T07:23:24.330Z,9.05
2023-03-18T07:25:52.617Z,7.33
2023-03-18T07:28:20.979Z,11.43
2023-03-18T07:30:49.844Z,11.02
2023-03-18T07:33:17.899Z,9.40
2023-03-18T07:35:47.074Z,8.33
2023-03-18T07:38:18.183Z,10.70
2023-03-18T07:40:46.348Z,8.52
2023-03-18T07:43:15.851Z,9.20
2023-03-18T07:45:43.831Z,6.57
2023-03-18T07:48:11.779Z,6.75
2023-03-18T07:50:39.877Z,6.40
2023-03-18T07:53:09.360Z,7.03
2023-03-18T07:55:38.165Z,6.80
2023-03-18T07:58:07.544Z,6.55
2023-03-18T08:00:36.675Z,7.47
2023-03-18T08:03:05.949Z,6.97
2023-03-18T08:05:34.430Z,8.25
2023-03-18T08:08:05.432Z,8.10
2023-03-18T08:10:35.388Z,6.72
2023-03-18T08:13:06.136Z,8.35
2023-03-18T08:15:34.315Z,6.60
2023-03-18T08:18:02.702Z,5.57
2023-03-18T08:20:30.474Z,6.47
2023-03-18T08:23:01.259Z,5.13
2023-03-18T08:25:29.337Z,6.60
2023-03-18T08:27:58.525Z,7.53
2023-03-18T08:30:30.529Z,6.13
2023-03-18T08:32:58.554Z,8.65
2023-03-18T08:35:26.529Z,6.33
2023-03-18T08:37:54.498Z,6.13
2023-03-18T08:40:22.248Z,5.50
2023-03-18T08:42:49.945Z,5.78
2023-03-18T08:45:21.119Z,5.07
2023-03-18T08:47:48.866Z,4.40
2023-03-18T08:50:16.794Z,6.65
2023-03-18T08:52:44.875Z,6.20
2023-03-18T08:55:12.694Z,5.77
2023-03-18T08:57:40.627Z,5.43
2023-03-18T09:00:09.981Z,5.00
2023-03-18T09:02:39.393Z,5.67
2023-03-18T09:05:07.906Z,6.97
2023-03-18T09:07:36.238Z,8.60
2023-03-18T09:10:04.446Z,4.15
2023-03-18T09:12:32.246Z,3.73
2023-03-18T09:15:02.176Z,8.73
2023-03-18T09:17:45.169Z,5.33
2023-03-18T09:20:19.649Z,6.13
2023-03-18T09:22:48.152Z,4.25
2023-03-18T09:25:16.707Z,4.43
2023-03-18T09:27:45.784Z,6.77
2023-03-18T09:30:14.261Z,4.80
2023-03-18T09:32:42.221Z,7.17
2023-03-18T09:35:13.117Z,6.00
2023-03-18T09:37:43.763Z,5.47
2023-03-18T09:40:20.741Z,4.80
2023-03-18T09:43:00.334Z,4.17
2023-03-18T09:45:34.167Z,3.45
2023-03-18T09:48:40.089Z,5.13
2023-03-18T09:51:19.838Z,5.27
2023-03-18T09:53:54.939Z,3.87
2023-03-18T09:56:26.467Z,4.68
2023-03-18T09:59:00.226Z,4.85
2023-03-18T10:01:32.331Z,3.90
2023-03-18T10:04:06.810Z,4.93
2023-03-18T10:06:37.872Z,5.90
2023-03-18T10:09:15.453Z,5.07
2023-03-18T10:11:44.996Z,5.85
2023-03-18T10:14:21.940Z,4.18
2023-03-18T10:17:02.657Z,4.60
2023-03-18T10:19:30.499Z,4.63
2023-03-18T10:22:12.118Z,5.85
2023-03-18T10:24:50.701Z,5.55
2023-03-18T10:27:22.326Z,4.05
2023-03-18T10:30:01.268Z,5.18
2023-03-18T10:32:49.114Z,4.20
2023-03-18T10:35:27.819Z,6.20
2023-03-18T10:38:04.622Z,7.72
2023-03-18T10:40:38.459Z,4.13
2023-03-18T10:43:16.808Z,4.35
2023-03-18T10:45:47.136Z,4.57
2023-03-18T10:48:24.298Z,3.20
2023-03-18T10:51:02.306Z,5.47
2023-03-18T10:53:36.062Z,4.50
2023-03-18T10:56:08.807Z,4.75
2023-03-18T10:58:38.700Z,4.55
2023-03-18T11:01:09.949Z,4.55
2023-03-18T11:03:43.718Z,4.47
2023-03-18T11:06:20.073Z,6.65
2023-03-18T11:08:51.726Z,3.75
2023-03-18T11:11:29.263Z,3.67
2023-03-18T11:14:00.045Z,4.60
2023-03-18T11:16:35.682Z,4.40
2023-03-18T11:19:25.437Z,4.60
2023-03-18T11:22:05.862Z,4.43
2023-03-18T11:24:43.865Z,7.57
2023-03-18T11:27:37.614Z,4.30
2023-03-18T11:30:34.842Z,3.00
2023-03-18T11:33:17.160Z,3.40
2023-03-18T11:35:51.343Z,4.90
2023-03-18T11:38:22.558Z,3.47
2023-03-18T11:40:50.510Z,3.75
2023-03-18T11:43:22.954Z,4.30
2023-03-18T11:45:55.091Z,4.95
2023-03-18T11:48:32.091Z,3.75
2023-03-18T11:51:33.664Z,2.42
2023-03-18T11:54:35.650Z,5.15
2023-03-18T11:57:12.202Z,4.82
2023-03-18T12:00:00.480Z,4.32
2023-03-18T12:03:01.136Z,3.88
2023-03-18T12:05:46.983Z,3.83
2023-03-18T12:08:25.413Z,2.88
2023-03-18T12:11:06.388Z,2.60
2023-03-18T12:13:45.122Z,3.92
2023-03-18T12:16:27.657Z,3.97
2023-03-18T12:19:26.616Z,4.07
2023-03-18T12:22:07.702Z,3.65
2023-03-18T12:24:54.702Z,3.10
2023-03-18T12:27:34.811Z,4.15
2023-03-18T12:30:15.443Z,3.97
2023-03-18T12:32:52.457Z,9.13
2023-03-18T12:35:36.842Z,3.95
2023-03-18T12:38:31.331Z,5.70
2023-03-18T12:41:07.987Z,3.53
2023-03-18T12:43:52.593Z,2.55
2023-03-18T12:46:28.624Z,2.80
2023-03-18T12:49:06.107Z,2.65
2023-03-18T12:51:41.946Z,3.10
2023-03-18T12:54:18.085Z,2.72
2023-03-18T12:56:51.086Z,2.42
2023-03-18T12:59:25.521Z,2.33
2023-03-18T13:02:07.313Z,2.60
2023-03-18T13:04:41.856Z,4.40
2023-03-18T13:07:18.051Z,2.33
2023-03-18T13:09:52.647Z,2.65
2023-03-18T13:12:24.724Z,4.05
2023-03-18T13:14:58.494Z,4.05
2023-03-18T13:17:31.457Z,5.35
2023-03-18T13:20:02.930Z,3.78
2023-03-18T13:22:49.547Z,2.35
2023-03-18T13:25:29.587Z,5.90
2023-03-18T13:28:22.945Z,5.60
2023-03-18T13:31:03.428Z,4.97
2023-03-18T13:33:47.461Z,4.32
2023-03-18T13:36:46.548Z,3.65
2023-03-18T13:39:36.040Z,5.85
2023-03-18T13:42:25.880Z,3.92
2023-03-18T13:45:02.258Z,4.88
2023-03-18T13:47:33.428Z,4.22
2023-03-18T13:50:03.718Z,4.45
2023-03-18T13:52:42.040Z,4.65
2023-03-18T13:55:26.132Z,2.03
2023-03-18T13:57:58.823Z,3.70
2023-03-18T14:00:34.436Z,4.25
2023-03-18T14:03:16.073Z,4.30
2023-03-18T14:05:45.646Z,2.70
2023-03-18T14:08:49.629Z,3.75
2023-03-18T14:11:46.857Z,3.97
2023-03-18T14:14:40.528Z,5.82
2023-03-18T14:17:18.416Z,3.45
2023-03-18T14:19:47.151Z,5.35
2023-03-18T14:22:22.948Z,3.67
2023-03-18T14:25:35.287Z,2.55
2023-03-18T14:28:24.737Z,3.53
2023-03-18T14:31:17.805Z,4.63
2023-03-18T14:33:58.277Z,6.25
2023-03-18T14:36:45.265Z,4.50
2023-03-18T14:39:18.896Z,5.47
2023-03-18T14:41:53.376Z,6.63
2023-03-18T14:44:25.283Z,6.95
2023-03-18T14:46:58.180Z,7.30
2023-03-18T14:49:42.154Z,5.60
2023-03-18T14:52:24.130Z,5.82
2023-03-18T14:54:55.215Z,5.90
2023-03-18T14:57:25.791Z,4.88
2023-03-18T14:59:53.860Z,3.15
2023-03-18T15:02:25.521Z,6.00
2023-03-18T15:04:56.637Z,4.20
2023-03-18T15:07:34.827Z,3.92
2023-03-18T15:10:05.905Z,4.93
2023-03-18T15:12:35.115Z,5.25
2023-03-18T15:15:03.036Z,5.53
2023-03-18T15:17:31.408Z,4.40
2023-03-18T15:20:00.359Z,3.30
2023-03-18T15:22:31.176Z,4.55
2023-03-18T15:25:02.339Z,4.63
2023-03-18T15:27:32.951Z,4.45
2023-03-18T15:30:04.760Z,4.57
2023-03-18T15:32:34.245Z,4.18
2023-03-18T15:35:17.286Z,4.25
2023-03-18T15:37:46.732Z,4.90
2023-03-18T15:40:27.071Z,4.20
2023-03-18T15:42:57.039Z,2.85
2023-03-18T15:45:30.955Z,4.45
2023-03-18T15:48:05.682Z,3.95
2023-03-18T15:50:34.683Z,3.38
2023-03-18T15:53:05.011Z,3.15
2023-03-18T15:55:37.291Z,3.42
2023-03-18T15:58:06.942Z,5.75
2023-03-18T16:00:36.202Z,4.18
2023-03-18T16:03:04.030Z,4.95
2023-03-18T16:05:32.235Z,2.95
2023-03-18T16:08:00.204Z,3.30
2023-03-18T16:10:28.090Z,4.05
2023-03-18T16:13:01.484Z,3.05
2023-03-18T16:15:29.885Z,4.55
2023-03-18T16:17:59.083Z,5.03
2023-03-18T16:20:29.079Z,3.45
2023-03-18T16:22:57.220Z,6.40
2023-03-18T16:25:26.203Z,4.07
2023-03-18T16:27:57.098Z,3.45
2023-03-18T16:30:27.720Z,4.72
2023-03-18T16:32:56.663Z,4.85
2023-03-18T16:35:27.870Z,4.47
2023-03-18T16:37:55.619Z,4.97
2023-03-18T16:40:25.112Z,4.00
2023-03-18T16:42:53.536Z,3.30
2023-03-18T16:45:25.218Z,3.97
2023-03-18T16:47:55.539Z,7.15
2023-03-18T16:50:28.376Z,3.08
2023-03-18T16:52:56.148Z,3.95
2023-03-18T16:55:24.452Z,2.88
2023-03-18T16:57:55.776Z,3.75
2023-03-18T17:00:26.121Z,2.70
2023-03-18T17:02:53.843Z,3.03
2023-03-18T17:05:22.458Z,3.58
2023-03-18T17:07:54.006Z,3.60
2023-03-18T17:10:23.778Z,3.78
2023-03-18T17:12:55.648Z,3.05
2023-03-18T17:15:27.541Z,5.72
2023-03-18T17:17:58.183Z,4.53
2023-03-18T17:20:28.250Z,4.65
2023-03-18T17:23:01.694Z,3.33
2023-03-18T17:25:31.030Z,4.13
2023-03-18T17:28:01.159Z,4.10
2023-03-18T17:30:33.465Z,5.82
2023-03-18T17:33:02.280Z,3.13
2023-03-18T17:35:30.258Z,3.45
2023-03-18T17:37:58.076Z,3.97
2023-03-18T17:40:29.939Z,3.25
2023-03-18T17:42:57.793Z,3.72
2023-03-18T17:45:30.004Z,3.97
2023-03-18T17:48:02.579Z,4.32
2023-03-18T17:50:30.448Z,3.35
2023-03-18T17:52:58.711Z,4.65
2023-03-18T17:55:28.213Z,6.77
2023-03-18T17:57:56.781Z,3.25
2023-03-18T18:00:26.459Z,2.95
2023-03-18T18:02:55.492Z,5.10
2023-03-18T18:05:24.267Z,4.18
2023-03-18T18:07:53.072Z,3.03
2023-03-18T18:10:21.580Z,3.08
2023-03-18T18:12:50.802Z,3.05
2023-03-18T18:15:21.334Z,3.35
2023-03-18T18:17:49.341Z,3.83
2023-03-18T18:20:18.198Z,3.60
2023-03-18T18:22:50.401Z,4.70
2023-03-18T18:25:21.562Z,3.60
2023-03-18T18:27:50.778Z,4.00
2023-03-18T18:30:26.328Z,3.95
2023-03-18T18:32:54.427Z,4.50
2023-03-18T18:35:25.025Z,2.92
2023-03-18T18:37:53.057Z,3.97
2023-03-18T18:40:20.916Z,4.28
2023-03-18T18:42:50.484Z,3.13
2023-03-18T18:45:20.929Z,4.00
2023-03-18T18:47:49.012Z,6.00
2023-03-18T18:50:19.510Z,5.07
2023-03-18T18:52:47.607Z,3.92
2023-03-18T18:55:15.800Z,4.97
2023-03-18T18:57:43.816Z,4.65
2023-03-18T19:00:19.862Z,5.10
2023-03-18T19:02:47.748Z,4.38
2023-03-18T19:05:17.627Z,4.03
2023-03-18T19:07:46.479Z,6.47
2023-03-18T19:10:16.072Z,4.47
2023-03-18T19:12:45.083Z,4.80
2023-03-18T19:15:15.693Z,4.10
2023-03-18T19:17:48.010Z,5.82
2023-03-18T19:20:31.240Z,4.70
2023-03-18T19:22:59.420Z,5.75
2023-03-18T19:25:27.619Z,6.20
2023-03-18T19:27:55.752Z,4.25
2023-03-18T19:30:25.166Z,6.97
2023-03-18T19:32:54.396Z,6.38
2023-03-18T19:35:22.399Z,3.88
2023-03-18T19:37:51.198Z,5.67
2023-03-18T19:40:29.874Z,4.80
2023-03-18T19:42:59.329Z,4.40
2023-03-18T19:45:27.308Z,3.97
2023-03-18T19:47:56.787Z,5.40
2023-03-18T19:50:24.567Z,4.82
2023-03-18T19:52:54.021Z,5.70
2023-03-18T19:55:24.969Z,3.42
2023-03-18T19:57:56.173Z,3.83
2023-03-18T20:00:27.548Z,5.18
2023-03-18T20:02:58.335Z,4.23
2023-03-18T20:05:27.108Z,8.77
2023-03-18T20:07:55.107Z,4.72
2023-03-18T20:10:23.425Z,4.43
2023-03-18T20:12:52.219Z,5.78
2023-03-18T20:15:21.736Z,6.35
2023-03-18T20:17:50.715Z,6.80
2023-03-18T20:20:21.790Z,6.03
2023-03-18T20:22:53.797Z,5.80
2023-03-18T20:25:25.076Z,4.85
2023-03-18T20:27:56.286Z,6.70
2023-03-18T20:30:27.760Z,7.43
2023-03-18T20:32:56.296Z,6.30
2023-03-18T20:35:29.358Z,6.57
2023-03-18T20:37:59.131Z,8.95
2023-03-18T20:40:29.115Z,9.85
2023-03-18T20:42:57.052Z,6.40
2023-03-18T20:45:26.132Z,8.95
2023-03-18T20:47:54.014Z,9.52
2023-03-18T20:50:25.322Z,9.93
2023-03-18T20:52:54.472Z,10.02
2023-03-18T20:55:25.567Z,7.07
2023-03-18T20:57:55.463Z,8.93
2023-03-18T21:00:26.842Z,7.97
2023-03-18T21:02:56.335Z,6.13
2023-03-18T21:05:25.079Z,8.20
2023-03-18T21:07:54.429Z,6.68
2023-03-18T21:10:23.680Z,9.27
2023-03-18T21:12:52.020Z,7.00
2023-03-18T21:15:21.841Z,8.35
2023-03-18T21:17:50.102Z,9.27
2023-03-18T21:20:22.590Z,9.17
2023-03-18T21:22:51.796Z,10.97
2023-03-18T21:25:24.299Z,8.82
2023-03-18T21:27:52.765Z,10.20
2023-03-18T21:30:22.513Z,10.07
2023-03-18T21:32:51.431Z,10.50
2023-03-18T21:35:21.757Z,8.30
2023-03-18T21:37:49.867Z,9.67
2023-03-18T21:40:19.728Z,7.50
2023-03-18T21:42:49.312Z,10.03
2023-03-18T21:45:19.471Z,9.57
2023-03-18T21:47:47.365Z,9.23
2023-03-18T21:50:23.989Z,9.97
2023-03-18T21:52:52.665Z,7.83
2023-03-18T21:55:21.049Z,8.10
2023-03-18T21:57:50.534Z,8.17
2023-03-18T22:00:21.074Z,7.87
2023-03-18T22:02:49.507Z,9.97
2023-03-18T22:05:19.521Z,8.55
2023-03-18T22:07:47.646Z,9.85
2023-03-18T22:10:16.628Z,7.93
2023-03-18T22:12:44.824Z,7.78
2023-03-18T22:15:35.981Z,8.67
2023-03-18T22:18:03.919Z,8.73
2023-03-18T22:20:32.853Z,8.60
2023-03-18T22:23:00.574Z,8.88
2023-03-18T22:25:30.946Z,7.53
2023-03-18T22:27:59.447Z,9.75
2023-03-18T22:30:30.425Z,8.10
2023-03-18T22:32:59.435Z,6.57
2023-03-18T22:35:29.514Z,8.93
2023-03-18T22:37:57.449Z,7.70
2023-03-18T22:40:27.170Z,8.60
2023-03-18T22:42:57.565Z,9.23
2023-03-18T22:45:27.645Z,8.48
2023-03-18T22:47:58.767Z,7.30
2023-03-18T22:50:28.857Z,7.33
2023-03-18T22:53:00.186Z,6.22
2023-03-18T22:55:33.163Z,8.70
2023-03-18T22:58:01.255Z,5.87
2023-03-18T23:00:36.065Z,8.20
2023-03-18T23:03:11.318Z,7.70
2023-03-18T23:05:39.325Z,7.85
2023-03-18T23:08:07.558Z,5.60
2023-03-18T23:10:36.320Z,4.97
2023-03-18T23:13:12.346Z,4.87
2023-03-18T23:15:40.144Z,5.20
2023-03-18T23:18:13.572Z,5.45
2023-03-18T23:20:41.412Z,5.32
2023-03-18T23:23:09.397Z,5.47
2023-03-18T23:25:37.256Z,6.00
2023-03-18T23:28:05.231Z,4.13
2023-03-18T23:30:33.576Z,5.83
2023-03-18T23:33:01.671Z,8.00
2023-03-18T23:35:30.868Z,5.97
2023-03-18T23:37:58.554Z,5.90
2023-03-18T23:40:27.162Z,4.80
2023-03-18T23:42:55.093Z,5.00
2023-03-18T23:45:24.663Z,4.37
2023-03-18T23:47:52.466Z,6.37
2023-03-18T23:50:20.413Z,4.73
2023-03-18T23:52:49.622Z,11.55
2023-03-18T23:55:33.205Z,5.90
2023-03-18T23:58:02.053Z,5.43
